createdAt,value
2019-03-29T00:00:08.150Z,94.76
2019-03-29T00:01:08.148Z,94.71
2019-03-29T00:02:08.146Z,94.40
2019-03-29T00:03:09.028Z,94.61
2019-03-29T00:04:08.102Z,94.51
2019-03-29T00:05:08.136Z,94.71
2019-03-29T00:06:08.082Z,94.82
2019-03-29T00:07:08.086Z,94.65
2019-03-29T00:08:09.172Z,94.86
2019-03-29T00:09:08.046Z,95.34
2019-03-29T00:10:08.053Z,95.23
2019-03-29T00:11:08.025Z,94.86
2019-03-29T00:12:08.086Z,94.76
2019-03-29T00:13:08.002Z,94.82
2019-03-29T00:14:08.010Z,94.86
2019-03-29T00:15:08.126Z,95.59
2019-03-29T00:16:07.971Z,95.54
2019-03-29T00:17:07.979Z,95.44
2019-03-29T00:18:07.984Z,95.65
2019-03-29T00:19:07.960Z,94.76
2019-03-29T00:20:07.933Z,95.96
2019-03-29T00:21:07.918Z,95.23
2019-03-29T00:22:07.924Z,94.82
2019-03-29T00:23:07.899Z,94.51
2019-03-29T00:24:07.920Z,95.96
2019-03-29T00:25:07.885Z,95.59
2019-03-29T00:26:07.877Z,94.55
2019-03-29T00:27:07.854Z,95.54
2019-03-29T00:28:07.862Z,95.34
2019-03-29T00:29:07.839Z,95.86
2019-03-29T00:30:07.833Z,95.65
2019-03-29T00:31:07.854Z,95.54
2019-03-29T00:32:07.820Z,95.50
2019-03-29T00:33:07.851Z,95.81
2019-03-29T00:34:07.800Z,94.82
2019-03-29T00:35:08.036Z,94.92
2019-03-29T00:36:07.769Z,94.92
2019-03-29T00:37:07.749Z,94.82
2019-03-29T00:38:07.751Z,94.82
2019-03-29T00:39:07.726Z,95.75
2019-03-29T00:40:07.776Z,95.44
2019-03-29T00:41:07.705Z,95.54
2019-03-29T00:42:07.699Z,95.28
2019-03-29T00:43:08.991Z,94.96
2019-03-29T00:44:07.674Z,94.55
2019-03-29T00:45:07.670Z,94.86
2019-03-29T00:46:07.739Z,94.96
2019-03-29T00:47:07.665Z,94.55
2019-03-29T00:48:07.632Z,95.59
2019-03-29T00:49:07.625Z,95.59
2019-03-29T00:50:07.618Z,95.48
2019-03-29T00:51:07.610Z,95.48
2019-03-29T00:52:07.616Z,95.17
2019-03-29T00:53:09.012Z,95.28
2019-03-29T00:54:07.572Z,95.90
2019-03-29T00:55:07.573Z,95.48
2019-03-29T00:56:07.549Z,95.28
2019-03-29T00:57:07.540Z,95.48
2019-03-29T00:58:07.550Z,95.63
2019-03-29T00:59:07.558Z,95.73
2019-03-29T01:00:07.515Z,95.42
2019-03-29T01:01:07.495Z,95.32
2019-03-29T01:02:07.560Z,95.42
2019-03-29T01:03:07.582Z,95.90
2019-03-29T01:04:07.466Z,96.62
2019-03-29T01:05:07.519Z,96.73
2019-03-29T01:06:07.441Z,96.11
2019-03-29T01:07:07.436Z,95.65
2019-03-29T01:08:09.453Z,95.54
2019-03-29T01:09:07.431Z,94.92
2019-03-29T01:10:07.405Z,94.86
2019-03-29T01:11:07.406Z,95.23
2019-03-29T01:12:07.377Z,94.86
2019-03-29T01:13:07.722Z,94.24
2019-03-29T01:14:07.369Z,94.18
2019-03-29T01:15:07.350Z,94.34
2019-03-29T01:16:07.340Z,94.45
2019-03-29T01:17:07.331Z,95.48
2019-03-29T01:18:07.357Z,95.48
2019-03-29T01:19:07.322Z,95.63
2019-03-29T01:20:07.297Z,96.31
2019-03-29T01:21:07.289Z,95.69
2019-03-29T01:22:07.278Z,96.06
2019-03-29T01:23:07.299Z,96.11
2019-03-29T01:24:07.314Z,95.44
2019-03-29T01:25:08.004Z,95.96
2019-03-29T01:26:07.231Z,95.69
2019-03-29T01:27:07.228Z,95.28
2019-03-29T01:28:07.228Z,95.13
2019-03-29T01:29:07.222Z,94.96
2019-03-29T01:30:07.243Z,94.76
2019-03-29T01:31:07.195Z,94.86
2019-03-29T01:32:07.355Z,95.28
2019-03-29T01:33:07.161Z,94.55
2019-03-29T01:34:07.160Z,95.28
2019-03-29T01:35:07.154Z,95.28
2019-03-29T01:36:07.134Z,94.96
2019-03-29T01:37:07.130Z,95.21
2019-03-29T01:38:20.832Z,95.01
2019-03-29T01:39:08.099Z,95.53
2019-03-29T01:40:07.083Z,95.59
2019-03-29T01:41:07.087Z,95.32
2019-03-29T01:42:07.087Z,95.42
2019-03-29T01:43:07.079Z,95.53
2019-03-29T01:44:07.056Z,94.80
2019-03-29T01:45:07.032Z,95.32
2019-03-29T01:46:07.024Z,95.84
2019-03-29T01:47:07.020Z,95.84
2019-03-29T01:48:07.025Z,94.65
2019-03-29T01:49:07.047Z,94.90
2019-03-29T01:50:07.982Z,94.90
2019-03-29T01:51:06.968Z,95.01
2019-03-29T01:52:06.960Z,94.70
2019-03-29T01:53:06.948Z,95.73
2019-03-29T01:54:06.954Z,95.42
2019-03-29T01:55:07.040Z,95.73
2019-03-29T01:56:06.922Z,95.63
2019-03-29T01:57:07.016Z,94.59
2019-03-29T01:58:06.893Z,95.15
2019-03-29T01:59:06.935Z,94.95
2019-03-29T02:00:06.886Z,94.84
2019-03-29T02:01:06.891Z,95.05
2019-03-29T02:02:06.871Z,95.67
2019-03-29T02:03:06.898Z,95.78
2019-03-29T02:04:08.048Z,95.84
2019-03-29T02:05:06.821Z,96.15
2019-03-29T02:06:06.824Z,96.36
2019-03-29T02:07:06.804Z,95.73
2019-03-29T02:08:06.792Z,95.32
2019-03-29T02:09:06.805Z,95.78
2019-03-29T02:10:06.790Z,94.90
2019-03-29T02:11:06.757Z,94.95
2019-03-29T02:12:07.078Z,95.05
2019-03-29T02:13:06.732Z,95.15
2019-03-29T02:14:06.725Z,95.11
2019-03-29T02:15:06.747Z,94.84
2019-03-29T02:16:06.720Z,94.43
2019-03-29T02:17:06.690Z,94.95
2019-03-29T02:18:06.687Z,94.84
2019-03-29T02:19:06.671Z,94.64
2019-03-29T02:20:06.660Z,94.95
2019-03-29T02:21:06.679Z,94.43
2019-03-29T02:22:06.661Z,94.64
2019-03-29T02:23:06.626Z,94.74
2019-03-29T02:24:06.620Z,95.05
2019-03-29T02:25:06.606Z,95.09
2019-03-29T02:26:06.597Z,94.95
2019-03-29T02:27:06.601Z,95.20
2019-03-29T02:28:06.588Z,94.84
2019-03-29T02:29:06.562Z,94.84
2019-03-29T02:30:06.551Z,94.99
2019-03-29T02:31:06.541Z,94.89
2019-03-29T02:32:06.532Z,95.72
2019-03-29T02:33:06.543Z,94.78
2019-03-29T02:34:06.577Z,95.30
2019-03-29T02:35:06.546Z,95.62
2019-03-29T02:36:06.779Z,95.62
2019-03-29T02:37:06.494Z,95.30
2019-03-29T02:38:06.507Z,95.83
2019-03-29T02:39:06.470Z,94.68
2019-03-29T02:40:06.446Z,94.93
2019-03-29T02:41:06.497Z,94.89
2019-03-29T02:42:06.440Z,95.72
2019-03-29T02:43:06.422Z,95.83
2019-03-29T02:44:06.588Z,95.62
2019-03-29T02:45:06.418Z,95.72
2019-03-29T02:46:06.381Z,95.45
2019-03-29T02:47:06.382Z,95.87
2019-03-29T02:48:06.450Z,95.62
2019-03-29T02:49:06.348Z,96.28
2019-03-29T02:50:06.361Z,95.56
2019-03-29T02:51:06.351Z,95.66
2019-03-29T02:52:06.321Z,94.93
2019-03-29T02:53:06.332Z,94.76
2019-03-29T02:54:06.298Z,94.87
2019-03-29T02:55:06.315Z,95.81
2019-03-29T02:56:06.293Z,95.76
2019-03-29T02:57:06.282Z,96.28
2019-03-29T02:58:06.257Z,96.18
2019-03-29T02:59:06.325Z,96.18
2019-03-29T03:00:06.242Z,95.70
2019-03-29T03:01:06.239Z,96.33
2019-03-29T03:02:06.268Z,96.22
2019-03-29T03:03:06.209Z,95.81
2019-03-29T03:04:06.213Z,97.16
2019-03-29T03:05:06.191Z,96.95
2019-03-29T03:06:06.174Z,96.53
2019-03-29T03:07:06.160Z,97.16
2019-03-29T03:08:06.163Z,96.80
2019-03-29T03:09:13.686Z,97.22
2019-03-29T03:10:07.125Z,96.80
2019-03-29T03:11:06.131Z,96.80
2019-03-29T03:12:06.117Z,96.70
2019-03-29T03:13:06.135Z,96.28
2019-03-29T03:14:06.100Z,95.97
2019-03-29T03:15:06.094Z,96.08
2019-03-29T03:16:06.132Z,95.60
2019-03-29T03:17:06.085Z,95.81
2019-03-29T03:18:06.051Z,95.60
2019-03-29T03:19:06.035Z,96.01
2019-03-29T03:20:06.036Z,96.75
2019-03-29T03:21:06.019Z,96.80
2019-03-29T03:22:06.072Z,96.59
2019-03-29T03:23:06.022Z,96.91
2019-03-29T03:24:05.998Z,96.80
2019-03-29T03:25:05.974Z,97.01
2019-03-29T03:26:05.965Z,96.80
2019-03-29T03:27:05.959Z,97.01
2019-03-29T03:28:05.972Z,96.70
2019-03-29T03:29:05.998Z,97.33
2019-03-29T03:30:05.926Z,96.91
2019-03-29T03:31:05.910Z,97.01
2019-03-29T03:32:05.911Z,97.33
2019-03-29T03:33:05.898Z,96.80
2019-03-29T03:34:05.899Z,97.01
2019-03-29T03:35:05.924Z,97.01
2019-03-29T03:36:05.905Z,97.12
2019-03-29T03:37:05.846Z,97.12
2019-03-29T03:38:05.843Z,97.01
2019-03-29T03:39:05.828Z,97.01
2019-03-29T03:40:05.819Z,97.01
2019-03-29T03:41:05.846Z,97.22
2019-03-29T03:42:05.798Z,97.01
2019-03-29T03:43:05.837Z,97.12
2019-03-29T03:44:05.803Z,97.22
2019-03-29T03:45:05.774Z,96.49
2019-03-29T03:46:05.756Z,97.06
2019-03-29T03:47:05.769Z,96.85
2019-03-29T03:48:05.755Z,96.22
2019-03-29T03:49:05.735Z,96.12
2019-03-29T03:50:05.728Z,96.43
2019-03-29T03:51:05.714Z,95.60
2019-03-29T03:52:05.747Z,95.95
2019-03-29T03:53:05.688Z,96.26
2019-03-29T03:54:05.697Z,96.06
2019-03-29T03:55:05.666Z,96.58
2019-03-29T03:56:05.650Z,96.42
2019-03-29T03:57:05.648Z,96.89
2019-03-29T03:58:05.673Z,96.79
2019-03-29T03:59:05.628Z,96.89
2019-03-29T04:00:05.633Z,97.10
2019-03-29T04:01:05.616Z,97.14
2019-03-29T04:02:05.641Z,97.35
2019-03-29T04:03:05.618Z,96.83
2019-03-29T04:04:05.577Z,97.25
2019-03-29T04:05:05.599Z,97.25
2019-03-29T04:06:05.588Z,97.67
2019-03-29T04:07:05.537Z,97.46
2019-03-29T04:08:05.551Z,97.94
2019-03-29T04:09:05.521Z,98.29
2019-03-29T04:10:05.517Z,98.04
2019-03-29T04:11:05.530Z,98.25
2019-03-29T04:12:05.485Z,97.67
2019-03-29T04:13:05.493Z,97.46
2019-03-29T04:14:05.467Z,97.56
2019-03-29T04:15:05.470Z,97.88
2019-03-29T04:16:05.509Z,97.04
2019-03-29T04:17:05.515Z,98.08
2019-03-29T04:18:05.488Z,98.29
2019-03-29T04:19:05.413Z,97.88
2019-03-29T04:20:05.403Z,97.94
2019-03-29T04:21:05.395Z,97.72
2019-03-29T04:22:05.383Z,97.83
2019-03-29T04:23:05.385Z,97.72
2019-03-29T04:24:05.610Z,97.98
2019-03-29T04:25:05.359Z,97.67
2019-03-29T04:26:05.348Z,97.67
2019-03-29T04:27:05.335Z,97.98
2019-03-29T04:28:05.338Z,98.25
2019-03-29T04:29:05.522Z,97.98
2019-03-29T04:30:05.318Z,97.46
2019-03-29T04:31:05.290Z,97.40
2019-03-29T04:32:05.277Z,97.14
2019-03-29T04:33:05.268Z,97.30
2019-03-29T04:34:05.278Z,97.19
2019-03-29T04:35:05.250Z,96.98
2019-03-29T04:36:05.275Z,97.71
2019-03-29T04:37:05.227Z,97.71
2019-03-29T04:38:05.224Z,97.61
2019-03-29T04:39:05.218Z,97.67
2019-03-29T04:40:08.730Z,97.56
2019-03-29T04:41:05.205Z,97.61
2019-03-29T04:42:05.210Z,97.61
2019-03-29T04:43:05.165Z,97.61
2019-03-29T04:44:05.185Z,97.61
2019-03-29T04:45:05.143Z,97.71
2019-03-29T04:46:05.170Z,97.71
2019-03-29T04:47:05.125Z,97.61
2019-03-29T04:48:05.130Z,97.71
2019-03-29T04:49:05.123Z,97.88
2019-03-29T04:50:05.107Z,97.40
2019-03-29T04:51:05.081Z,97.40
2019-03-29T04:52:05.070Z,97.40
2019-03-29T04:53:05.092Z,97.19
2019-03-29T04:54:05.049Z,97.24
2019-03-29T04:55:05.084Z,97.44
2019-03-29T04:56:05.050Z,97.34
2019-03-29T04:57:05.014Z,97.19
2019-03-29T04:58:05.005Z,97.75
2019-03-29T04:59:05.005Z,97.50
2019-03-29T05:00:04.988Z,97.50
2019-03-29T05:01:05.009Z,97.71
2019-03-29T05:02:05.060Z,97.19
2019-03-29T05:03:04.980Z,97.92
2019-03-29T05:04:04.950Z,97.71
2019-03-29T05:05:05.020Z,97.50
2019-03-29T05:06:04.928Z,97.50
2019-03-29T05:07:04.916Z,97.92
2019-03-29T05:08:04.910Z,97.81
2019-03-29T05:09:04.939Z,97.61
2019-03-29T05:10:04.880Z,97.71
2019-03-29T05:11:04.872Z,97.50
2019-03-29T05:12:04.863Z,98.23
2019-03-29T05:13:04.850Z,97.98
2019-03-29T05:14:04.844Z,97.71
2019-03-29T05:15:04.900Z,98.29
2019-03-29T05:16:04.818Z,98.19
2019-03-29T05:17:04.819Z,97.77
2019-03-29T05:18:04.800Z,97.71
2019-03-29T05:19:04.787Z,97.61
2019-03-29T05:20:04.779Z,97.30
2019-03-29T05:21:04.786Z,97.81
2019-03-29T05:22:04.825Z,97.71
2019-03-29T05:23:04.749Z,97.71
2019-03-29T05:24:04.735Z,97.71
2019-03-29T05:25:04.731Z,97.46
2019-03-29T05:26:04.718Z,97.71
2019-03-29T05:27:04.778Z,97.67
2019-03-29T05:28:04.718Z,97.56
2019-03-29T05:29:04.795Z,97.67
2019-03-29T05:30:04.673Z,97.67
2019-03-29T05:31:04.690Z,97.67
2019-03-29T05:32:04.711Z,97.98
2019-03-29T05:33:04.665Z,97.88
2019-03-29T05:34:04.630Z,97.46
2019-03-29T05:35:04.622Z,97.77
2019-03-29T05:36:04.670Z,97.52
2019-03-29T05:37:04.674Z,98.25
2019-03-29T05:38:04.593Z,97.62
2019-03-29T05:39:04.600Z,97.83
2019-03-29T05:40:04.576Z,98.52
2019-03-29T05:41:04.589Z,97.99
2019-03-29T05:42:04.555Z,98.46
2019-03-29T05:43:04.536Z,98.41
2019-03-29T05:44:04.524Z,98.31
2019-03-29T05:45:04.594Z,98.93
2019-03-29T05:46:04.512Z,98.83
2019-03-29T05:47:04.566Z,99.24
2019-03-29T05:48:04.493Z,99.14
2019-03-29T05:49:04.474Z,98.57
2019-03-29T05:50:04.661Z,98.68
2019-03-29T05:51:04.477Z,99.10
2019-03-29T05:52:04.449Z,99.10
2019-03-29T05:53:04.501Z,99.10
2019-03-29T05:54:04.433Z,99.20
2019-03-29T05:55:04.417Z,99.30
2019-03-29T05:56:04.401Z,98.63
2019-03-29T05:57:04.434Z,98.74
2019-03-29T05:58:04.389Z,98.63
2019-03-29T05:59:04.376Z,98.63
2019-03-29T06:00:04.362Z,97.95
2019-03-29T06:01:04.417Z,97.80
2019-03-29T06:02:04.367Z,97.70
2019-03-29T06:03:04.350Z,97.59
2019-03-29T06:04:04.319Z,98.01
2019-03-29T06:05:04.309Z,97.80
2019-03-29T06:06:04.301Z,97.59
2019-03-29T06:07:04.290Z,97.28
2019-03-29T06:08:04.434Z,97.17
2019-03-29T06:09:04.272Z,97.28
2019-03-29T06:10:04.270Z,97.24
2019-03-29T06:11:04.259Z,97.59
2019-03-29T06:12:04.249Z,97.55
2019-03-29T06:13:04.247Z,97.34
2019-03-29T06:14:04.247Z,97.24
2019-03-29T06:15:04.209Z,97.13
2019-03-29T06:16:06.163Z,97.13
2019-03-29T06:17:04.187Z,96.82
2019-03-29T06:18:04.192Z,96.82
2019-03-29T06:19:04.162Z,96.72
2019-03-29T06:20:04.172Z,96.72
2019-03-29T06:21:04.170Z,96.72
2019-03-29T06:22:04.135Z,96.72
2019-03-29T06:23:04.148Z,96.57
2019-03-29T06:24:04.120Z,96.61
2019-03-29T06:25:04.102Z,96.67
2019-03-29T06:26:04.118Z,96.78
2019-03-29T06:27:04.077Z,96.52
2019-03-29T06:28:04.098Z,96.62
2019-03-29T06:29:04.058Z,96.00
2019-03-29T06:30:04.082Z,95.38
2019-03-29T06:31:04.046Z,95.34
2019-03-29T06:32:04.030Z,95.75
2019-03-29T06:33:04.029Z,96.06
2019-03-29T06:34:04.003Z,96.58
2019-03-29T06:35:04.033Z,97.06
2019-03-29T06:36:04.010Z,96.64
2019-03-29T06:37:03.984Z,96.64
2019-03-29T06:38:03.984Z,96.39
2019-03-29T06:39:03.955Z,96.50
2019-03-29T06:40:03.939Z,96.39
2019-03-29T06:41:03.934Z,96.45
2019-03-29T06:42:03.915Z,95.78
2019-03-29T06:43:04.031Z,95.78
2019-03-29T06:44:03.893Z,95.16
2019-03-29T06:45:03.889Z,95.26
2019-03-29T06:46:03.888Z,94.74
2019-03-29T06:47:03.860Z,94.64
2019-03-29T06:48:03.870Z,94.60
2019-03-29T06:49:03.870Z,94.60
2019-03-29T06:50:03.883Z,94.29
2019-03-29T06:51:03.822Z,93.56
2019-03-29T06:52:03.809Z,93.35
2019-03-29T06:53:03.801Z,93.46
2019-03-29T06:54:04.009Z,93.25
2019-03-29T06:55:03.797Z,93.56
2019-03-29T06:56:03.802Z,92.63
2019-03-29T06:57:03.756Z,93.21
2019-03-29T06:58:03.749Z,93.10
2019-03-29T06:59:03.753Z,93.00
2019-03-29T07:00:03.731Z,93.73
2019-03-29T07:01:03.720Z,93.31
2019-03-29T07:02:03.730Z,93.62
2019-03-29T07:03:03.767Z,93.62
2019-03-29T07:04:03.682Z,93.52
2019-03-29T07:05:03.688Z,93.58
2019-03-29T07:06:03.665Z,93.27
2019-03-29T07:07:03.653Z,93.48
2019-03-29T07:08:03.651Z,93.27
2019-03-29T07:09:03.678Z,93.43
2019-03-29T07:10:03.634Z,93.23
2019-03-29T07:11:16.538Z,92.81
2019-03-29T07:12:04.611Z,92.91
2019-03-29T07:13:03.623Z,92.19
2019-03-29T07:14:03.596Z,92.50
2019-03-29T07:15:03.579Z,92.57
2019-03-29T07:16:03.558Z,92.11
2019-03-29T07:17:03.607Z,92.52
2019-03-29T07:18:03.576Z,92.52
2019-03-29T07:19:05.136Z,92.42
2019-03-29T07:20:03.528Z,91.65
2019-03-29T07:21:03.528Z,92.07
2019-03-29T07:22:03.494Z,91.86
2019-03-29T07:23:03.488Z,91.92
2019-03-29T07:24:03.513Z,91.61
2019-03-29T07:25:03.457Z,90.74
2019-03-29T07:26:03.458Z,90.80
2019-03-29T07:27:03.467Z,90.19
2019-03-29T07:28:03.438Z,88.90
2019-03-29T07:29:03.451Z,89.32
2019-03-29T07:30:03.423Z,88.86
2019-03-29T07:31:03.410Z,88.14
2019-03-29T07:32:03.390Z,87.79
2019-03-29T07:33:03.373Z,87.69
2019-03-29T07:34:03.411Z,86.97
2019-03-29T07:35:03.355Z,86.72
2019-03-29T07:36:03.451Z,85.79
2019-03-29T07:37:05.772Z,84.93
2019-03-29T07:38:03.325Z,85.24
2019-03-29T07:39:03.313Z,84.79
2019-03-29T07:40:03.304Z,84.99
2019-03-29T07:41:03.378Z,84.48
2019-03-29T07:42:03.311Z,83.20
2019-03-29T07:43:03.309Z,83.92
2019-03-29T07:44:03.266Z,83.20
2019-03-29T07:45:03.301Z,83.06
2019-03-29T07:46:03.238Z,82.86
2019-03-29T07:47:03.227Z,82.76
2019-03-29T07:48:03.298Z,82.24
2019-03-29T07:49:03.246Z,82.24
2019-03-29T07:50:03.194Z,82.41
2019-03-29T07:51:03.188Z,82.10
2019-03-29T07:52:03.213Z,81.45
2019-03-29T07:53:03.182Z,81.45
2019-03-29T07:54:03.179Z,80.93
2019-03-29T07:55:03.140Z,81.55
2019-03-29T07:56:03.130Z,81.45
2019-03-29T07:57:03.231Z,80.73
2019-03-29T07:58:03.112Z,81.71
2019-03-29T07:59:03.101Z,80.58
2019-03-29T08:00:03.134Z,80.38
2019-03-29T08:01:03.098Z,80.45
2019-03-29T08:02:03.091Z,79.52
2019-03-29T08:03:03.087Z,79.49
2019-03-29T08:04:03.044Z,80.41
2019-03-29T08:05:03.046Z,79.18
2019-03-29T08:06:03.052Z,79.18
2019-03-29T08:07:03.016Z,79.28
2019-03-29T08:08:02.999Z,78.83
2019-03-29T08:09:03.048Z,78.94
2019-03-29T08:10:04.064Z,78.83
2019-03-29T08:11:02.990Z,78.74
2019-03-29T08:12:02.969Z,78.63
2019-03-29T08:13:02.949Z,78.63
2019-03-29T08:14:02.945Z,79.31
2019-03-29T08:15:02.990Z,79.52
2019-03-29T08:16:02.917Z,79.31
2019-03-29T08:17:02.927Z,78.90
2019-03-29T08:18:02.899Z,77.67
2019-03-29T08:19:02.891Z,77.36
2019-03-29T08:20:36.729Z,78.25
2019-03-29T08:21:03.893Z,77.43
2019-03-29T08:22:02.857Z,78.86
2019-03-29T08:23:02.854Z,77.12
2019-03-29T08:24:02.836Z,76.88
2019-03-29T08:25:02.836Z,76.23
2019-03-29T08:26:02.810Z,77.15
2019-03-29T08:27:02.856Z,76.91
2019-03-29T08:28:02.797Z,76.71
2019-03-29T08:29:02.782Z,75.75
2019-03-29T08:30:02.764Z,74.84
2019-03-29T08:31:02.764Z,75.04
2019-03-29T08:32:02.771Z,74.59
2019-03-29T08:33:02.732Z,75.17
2019-03-29T08:34:02.721Z,73.84
2019-03-29T08:35:02.712Z,72.52
2019-03-29T08:36:02.699Z,72.89
2019-03-29T08:37:02.735Z,72.28
2019-03-29T08:38:06.042Z,72.34
2019-03-29T08:39:02.677Z,71.70
2019-03-29T08:40:02.660Z,71.63
2019-03-29T08:41:02.647Z,71.39
2019-03-29T08:42:02.639Z,71.15
2019-03-29T08:43:02.665Z,70.75
2019-03-29T08:44:02.653Z,69.90
2019-03-29T08:45:02.609Z,69.26
2019-03-29T08:46:02.612Z,68.65
2019-03-29T08:47:02.605Z,68.48
2019-03-29T08:48:02.600Z,68.21
2019-03-29T08:49:02.562Z,68.04
2019-03-29T08:50:02.603Z,67.49
2019-03-29T08:51:02.541Z,66.78
2019-03-29T08:52:02.530Z,66.35
2019-03-29T08:53:02.542Z,66.04
2019-03-29T08:54:02.527Z,66.24
2019-03-29T08:55:02.501Z,65.43
2019-03-29T08:56:02.499Z,66.14
2019-03-29T08:57:02.486Z,67.13
2019-03-29T08:58:02.472Z,66.85
2019-03-29T08:59:02.510Z,66.44
2019-03-29T09:00:02.447Z,65.53
2019-03-29T09:01:02.454Z,66.04
2019-03-29T09:02:02.422Z,65.25
2019-03-29T09:03:02.431Z,66.00
2019-03-29T09:04:05.625Z,66.33
2019-03-29T09:05:02.443Z,66.97
2019-03-29T09:06:02.379Z,67.29
2019-03-29T09:07:02.406Z,68.30
2019-03-29T09:08:02.360Z,69.25
2019-03-29T09:09:02.368Z,69.59
2019-03-29T09:10:02.372Z,68.88
2019-03-29T09:11:02.357Z,69.90
2019-03-29T09:12:13.709Z,68.37
2019-03-29T09:13:04.621Z,68.16
2019-03-29T09:14:02.300Z,68.47
2019-03-29T09:15:04.109Z,68.88
2019-03-29T09:16:02.279Z,68.47
2019-03-29T09:17:02.323Z,68.47
2019-03-29T09:18:02.269Z,69.29
2019-03-29T09:19:02.239Z,68.77
2019-03-29T09:20:02.236Z,68.88
2019-03-29T09:21:02.220Z,68.37
2019-03-29T09:22:02.416Z,68.37
2019-03-29T09:23:02.250Z,68.44
2019-03-29T09:24:02.218Z,68.54
2019-03-29T09:25:02.173Z,69.25
2019-03-29T09:26:02.162Z,68.64
2019-03-29T09:27:02.152Z,67.21
2019-03-29T09:28:02.142Z,67.29
2019-03-29T09:29:02.155Z,67.25
2019-03-29T09:30:04.999Z,67.35
2019-03-29T09:31:02.266Z,66.97
2019-03-29T09:32:02.104Z,66.88
2019-03-29T09:33:02.097Z,66.82
2019-03-29T09:34:02.113Z,64.84
2019-03-29T09:35:02.108Z,63.06
2019-03-29T09:36:04.862Z,62.46
2019-03-29T09:37:02.088Z,59.86
2019-03-29T09:38:02.035Z,59.10
2019-03-29T09:39:02.022Z,59.00
2019-03-29T09:40:02.029Z,58.59
2019-03-29T09:41:02.030Z,58.97
2019-03-29T09:42:01.992Z,58.13
2019-03-29T09:43:09.139Z,58.06
2019-03-29T09:44:02.973Z,58.36
2019-03-29T09:45:01.985Z,57.62
2019-03-29T09:46:03.500Z,57.87
2019-03-29T09:47:01.955Z,57.09
2019-03-29T09:48:01.931Z,57.40
2019-03-29T09:49:01.933Z,57.17
2019-03-29T09:50:01.911Z,55.82
2019-03-29T09:51:01.911Z,55.22
2019-03-29T09:52:02.023Z,54.76
2019-03-29T09:53:01.894Z,53.45
2019-03-29T09:54:01.878Z,54.05
2019-03-29T09:55:01.858Z,54.25
2019-03-29T09:56:01.851Z,55.68
2019-03-29T09:57:01.857Z,57.91
2019-03-29T09:58:01.836Z,58.37
2019-03-29T09:59:01.824Z,58.65
2019-03-29T10:00:01.797Z,57.86
2019-03-29T10:01:01.793Z,56.96
2019-03-29T10:02:01.867Z,55.62
2019-03-29T10:03:01.792Z,54.89
2019-03-29T10:04:01.771Z,54.05
2019-03-29T10:05:02.016Z,54.25
2019-03-29T10:06:01.737Z,54.76
2019-03-29T10:07:01.726Z,55.55
2019-03-29T10:08:01.718Z,57.86
2019-03-29T10:09:01.733Z,58.29
2019-03-29T10:10:01.701Z,58.00
2019-03-29T10:11:01.750Z,55.93
2019-03-29T10:12:01.687Z,54.69
2019-03-29T10:13:01.660Z,54.23
2019-03-29T10:14:01.709Z,54.00
2019-03-29T10:15:01.641Z,52.84
2019-03-29T10:16:01.629Z,53.17
2019-03-29T10:17:01.669Z,53.09
2019-03-29T10:18:01.607Z,54.31
2019-03-29T10:19:01.594Z,55.60
2019-03-29T10:20:01.603Z,57.58
2019-03-29T10:21:01.571Z,57.78
2019-03-29T10:22:01.589Z,57.29
2019-03-29T10:23:01.595Z,54.71
2019-03-29T10:24:01.543Z,51.93
2019-03-29T10:25:02.562Z,50.80
2019-03-29T10:26:01.536Z,51.15
2019-03-29T10:27:01.517Z,50.70
2019-03-29T10:28:01.496Z,49.95
2019-03-29T10:29:01.491Z,50.00
2019-03-29T10:30:01.534Z,48.69
2019-03-29T10:31:01.482Z,47.34
2019-03-29T10:32:01.472Z,46.41
2019-03-29T10:33:01.537Z,45.94
2019-03-29T10:34:01.462Z,45.21
2019-03-29T10:35:01.419Z,45.61
2019-03-29T10:36:01.431Z,46.31
2019-03-29T10:37:01.468Z,45.55
2019-03-29T10:38:01.406Z,45.78
2019-03-29T10:39:01.418Z,45.63
2019-03-29T10:40:01.381Z,45.67
2019-03-29T10:41:01.355Z,46.28
2019-03-29T10:42:01.344Z,46.40
2019-03-29T10:43:01.341Z,47.61
2019-03-29T10:44:01.356Z,47.23
2019-03-29T10:45:01.405Z,47.43
2019-03-29T10:46:01.328Z,47.74
2019-03-29T10:47:01.297Z,49.04
2019-03-29T10:48:01.303Z,47.23
2019-03-29T10:49:01.283Z,49.24
2019-03-29T10:50:01.281Z,49.15
2019-03-29T10:51:01.371Z,47.86
2019-03-29T10:52:01.273Z,48.16
2019-03-29T10:53:01.227Z,48.66
2019-03-29T10:54:01.244Z,48.66
2019-03-29T10:55:01.235Z,49.35
2019-03-29T10:56:01.217Z,49.65
2019-03-29T10:57:01.188Z,50.88
2019-03-29T10:58:01.346Z,50.30
2019-03-29T10:59:01.194Z,51.03
2019-03-29T11:00:01.168Z,52.16
2019-03-29T11:01:01.147Z,51.89
2019-03-29T11:02:01.140Z,53.27
2019-03-29T11:03:01.121Z,51.07
2019-03-29T11:04:01.179Z,51.35
2019-03-29T11:05:01.108Z,50.95
2019-03-29T11:06:01.150Z,50.95
2019-03-29T11:07:01.076Z,51.98
2019-03-29T11:08:01.065Z,51.68
2019-03-29T11:09:01.058Z,52.69
2019-03-29T11:10:01.045Z,50.35
2019-03-29T11:11:01.045Z,50.65
2019-03-29T11:12:01.062Z,50.37
2019-03-29T11:13:11.917Z,51.28
2019-03-29T11:14:02.022Z,50.98
2019-03-29T11:15:01.011Z,50.78
2019-03-29T11:16:00.982Z,50.87
2019-03-29T11:17:00.970Z,52.82
2019-03-29T11:18:00.960Z,51.61
2019-03-29T11:19:00.948Z,51.93
2019-03-29T11:20:00.956Z,53.45
2019-03-29T11:21:00.988Z,54.99
2019-03-29T11:22:00.933Z,55.29
2019-03-29T11:23:00.911Z,54.69
2019-03-29T11:24:00.963Z,53.98
2019-03-29T11:25:00.892Z,52.99
2019-03-29T11:26:00.895Z,54.82
2019-03-29T11:27:01.020Z,55.52
2019-03-29T11:28:00.874Z,54.69
2019-03-29T11:29:00.841Z,54.89
2019-03-29T11:30:00.874Z,54.82
2019-03-29T11:31:00.876Z,55.29
2019-03-29T11:32:00.845Z,54.61
2019-03-29T11:33:00.799Z,54.58
2019-03-29T11:34:00.804Z,54.28
2019-03-29T11:35:00.816Z,54.61
2019-03-29T11:36:00.834Z,55.42
2019-03-29T11:37:00.789Z,55.42
2019-03-29T11:38:00.758Z,54.61
2019-03-29T11:39:00.739Z,55.80
2019-03-29T11:40:00.758Z,55.60
2019-03-29T11:41:00.730Z,55.60
2019-03-29T11:42:03.501Z,54.96
2019-03-29T11:43:00.716Z,53.83
2019-03-29T11:44:00.685Z,54.66
2019-03-29T11:45:00.693Z,56.46
2019-03-29T11:46:00.667Z,57.20
2019-03-29T11:47:00.652Z,57.29
2019-03-29T11:48:08.592Z,55.55
2019-03-29T11:49:01.629Z,55.62
2019-03-29T11:50:00.772Z,55.11
2019-03-29T11:51:00.632Z,54.82
2019-03-29T11:52:00.597Z,54.71
2019-03-29T11:53:00.587Z,55.29
2019-03-29T11:54:00.592Z,55.07
2019-03-29T11:55:00.569Z,55.19
2019-03-29T11:56:00.579Z,55.19
2019-03-29T11:57:00.561Z,55.29
2019-03-29T11:58:00.544Z,54.38
2019-03-29T11:59:00.570Z,54.08
2019-03-29T12:00:00.535Z,54.28
2019-03-29T12:01:00.500Z,53.27
2019-03-29T12:02:00.503Z,54.28
2019-03-29T12:03:00.484Z,54.58
2019-03-29T12:04:00.466Z,54.71
2019-03-29T12:05:00.481Z,55.11
2019-03-29T12:06:00.501Z,54.61
2019-03-29T12:07:03.426Z,55.52
2019-03-29T12:08:00.424Z,54.82
2019-03-29T12:09:00.418Z,54.51
2019-03-29T12:10:00.411Z,53.58
2019-03-29T12:11:00.594Z,53.55
2019-03-29T12:12:00.421Z,53.05
2019-03-29T12:13:00.372Z,53.30
2019-03-29T12:14:00.448Z,51.07
2019-03-29T12:15:00.392Z,50.85
2019-03-29T12:16:00.338Z,52.47
2019-03-29T12:17:00.338Z,52.97
2019-03-29T12:18:00.447Z,51.73
2019-03-29T12:19:00.322Z,51.84
2019-03-29T12:20:00.378Z,51.31
2019-03-29T12:21:00.296Z,49.92
2019-03-29T12:22:00.278Z,50.10
2019-03-29T12:23:00.366Z,50.07
2019-03-29T12:24:00.256Z,50.37
2019-03-29T12:25:00.351Z,49.87
2019-03-29T12:26:00.247Z,49.85
2019-03-29T12:27:00.260Z,49.10
2019-03-29T12:28:00.251Z,49.40
2019-03-29T12:29:00.196Z,49.24
2019-03-29T12:30:00.368Z,48.66
2019-03-29T12:31:00.173Z,48.61
2019-03-29T12:32:00.292Z,47.06
2019-03-29T12:33:00.152Z,45.41
2019-03-29T12:34:00.140Z,45.13
2019-03-29T12:35:00.350Z,45.71
2019-03-29T12:36:00.120Z,46.59
2019-03-29T12:37:00.111Z,45.17
2019-03-29T12:38:00.202Z,44.84
2019-03-29T12:39:00.164Z,44.42
2019-03-29T12:40:00.161Z,43.98
2019-03-29T12:41:00.110Z,43.58
2019-03-29T12:42:00.071Z,43.30
2019-03-29T12:43:00.077Z,43.94
2019-03-29T12:44:00.037Z,44.56
2019-03-29T12:45:00.024Z,45.51
2019-03-29T12:46:00.029Z,47.08
2019-03-29T12:47:00.001Z,48.16
2019-03-29T12:47:59.992Z,49.47
2019-03-29T12:49:00.023Z,49.29
2019-03-29T12:49:59.972Z,49.52
2019-03-29T12:50:59.978Z,50.93
2019-03-29T12:51:59.949Z,50.15